createdAt,value
2023-03-15T00:01:33.267Z,8.60
2023-03-15T00:05:36.643Z,9.33
2023-03-15T00:09:39.400Z,9.23
2023-03-15T00:13:40.964Z,6.77
2023-03-15T00:17:42.542Z,9.53
2023-03-15T00:21:44.018Z,9.00
2023-03-15T00:25:48.075Z,8.27
2023-03-15T00:29:49.537Z,6.47
2023-03-15T00:33:52.773Z,9.47
2023-03-15T00:37:55.078Z,10.87
2023-03-15T00:41:57.841Z,6.77
2023-03-15T00:45:59.716Z,10.77
2023-03-15T00:50:01.207Z,15.30
2023-03-15T00:54:03.447Z,6.13
2023-03-15T00:58:06.176Z,11.77
2023-03-15T01:02:08.130Z,10.93
2023-03-15T01:06:12.020Z,7.57
2023-03-15T01:10:14.810Z,10.23
2023-03-15T01:14:18.041Z,13.37
2023-03-15T01:18:19.483Z,12.67
2023-03-15T01:22:22.059Z,13.93
2023-03-15T01:26:23.803Z,12.07
2023-03-15T01:30:26.827Z,14.90
2023-03-15T01:34:28.280Z,9.70
2023-03-15T01:38:30.878Z,10.23
2023-03-15T01:42:32.483Z,12.07
2023-03-15T01:46:37.851Z,12.53
2023-03-15T01:50:39.562Z,11.40
2023-03-15T01:54:46.129Z,8.10
2023-03-15T01:58:48.365Z,12.17
2023-03-15T02:02:53.633Z,11.93
2023-03-15T02:06:58.620Z,12.23
2023-03-15T02:11:04.072Z,13.27
2023-03-15T02:15:07.184Z,7.27
2023-03-15T02:19:20.643Z,10.23
2023-03-15T02:23:23.725Z,7.27
2023-03-15T02:27:30.620Z,4.70
2023-03-15T02:31:33.929Z,4.60
2023-03-15T02:35:35.571Z,6.50
2023-03-15T02:39:37.000Z,6.10
2023-03-15T02:43:42.465Z,3.60
2023-03-15T02:47:45.424Z,4.53
2023-03-15T02:51:46.915Z,5.67
2023-03-15T02:55:48.377Z,4.03
2023-03-15T02:59:51.202Z,4.23
2023-03-15T03:03:52.605Z,6.00
2023-03-15T03:07:54.341Z,5.40
2023-03-15T03:11:55.762Z,5.40
2023-03-15T03:15:58.836Z,6.67
2023-03-15T03:20:00.258Z,5.60
2023-03-15T03:24:01.966Z,5.10
2023-03-15T03:28:03.434Z,4.70
2023-03-15T03:32:06.836Z,5.93
2023-03-15T03:36:08.430Z,9.97
2023-03-15T03:40:11.524Z,4.93
2023-03-15T03:44:13.054Z,6.33
2023-03-15T03:48:15.901Z,7.13
2023-03-15T03:52:17.619Z,4.43
2023-03-15T03:56:18.997Z,7.40
2023-03-15T04:00:21.353Z,6.20
2023-03-15T04:04:24.368Z,4.70
2023-03-15T04:08:26.840Z,6.73
2023-03-15T04:12:28.273Z,5.90
2023-03-15T04:16:29.781Z,7.07
2023-03-15T04:20:32.845Z,7.43
2023-03-15T04:24:34.641Z,7.30
2023-03-15T04:28:36.136Z,6.00
2023-03-15T04:32:38.286Z,8.40
2023-03-15T04:36:41.276Z,4.13
2023-03-15T04:40:42.714Z,4.73
2023-03-15T04:44:44.200Z,7.00
2023-03-15T04:48:45.642Z,4.10
2023-03-15T04:52:48.760Z,6.17
2023-03-15T04:56:51.194Z,4.20
2023-03-15T05:00:53.166Z,4.63
2023-03-15T05:04:54.644Z,5.97
2023-03-15T05:08:57.487Z,6.43
2023-03-15T05:13:00.835Z,6.53
2023-03-15T05:17:02.306Z,10.27
2023-03-15T05:21:04.226Z,6.33
2023-03-15T05:25:09.020Z,5.00
2023-03-15T05:29:10.666Z,6.93
2023-03-15T05:33:12.048Z,5.23
2023-03-15T05:37:13.465Z,7.07
2023-03-15T05:41:16.807Z,4.40
2023-03-15T05:45:19.723Z,5.13
2023-03-15T05:49:21.633Z,4.23
2023-03-15T05:53:23.072Z,5.00
2023-03-15T05:57:25.922Z,4.97
2023-03-15T06:01:27.344Z,5.60
2023-03-15T06:05:28.824Z,7.07
2023-03-15T06:09:30.469Z,7.03
2023-03-15T06:13:33.519Z,6.63
2023-03-15T06:17:34.942Z,8.77
2023-03-15T06:21:36.329Z,5.53
2023-03-15T06:25:37.722Z,6.20
2023-03-15T06:29:40.706Z,6.47
2023-03-15T06:33:42.220Z,10.63
2023-03-15T06:37:43.944Z,8.17
2023-03-15T06:41:45.369Z,9.30
2023-03-15T06:45:48.630Z,8.90
2023-03-15T06:49:50.086Z,9.30
2023-03-15T06:53:52.174Z,8.60
2023-03-15T06:57:53.839Z,8.00
2023-03-15T07:01:56.860Z,8.87
2023-03-15T07:05:58.634Z,8.73
2023-03-15T07:10:00.285Z,7.93
2023-03-15T07:14:01.945Z,9.60
2023-03-15T07:18:05.039Z,8.87
2023-03-15T07:22:07.010Z,9.27
2023-03-15T07:26:08.601Z,8.73
2023-03-15T07:30:11.380Z,8.63
2023-03-15T07:34:14.363Z,9.77
2023-03-15T07:38:16.017Z,10.23
2023-03-15T07:42:17.479Z,11.57
2023-03-15T07:46:18.984Z,10.23
2023-03-15T07:50:22.396Z,11.20
2023-03-15T07:54:23.804Z,10.83
2023-03-15T07:58:25.370Z,9.63
2023-03-15T08:02:29.008Z,9.20
2023-03-15T08:06:33.420Z,10.30
2023-03-15T08:10:34.878Z,10.43
2023-03-15T08:14:36.505Z,11.73
2023-03-15T08:18:37.985Z,12.77
2023-03-15T08:22:41.291Z,11.27
2023-03-15T08:26:42.766Z,11.07
2023-03-15T08:30:44.418Z,11.23
2023-03-15T08:34:46.255Z,11.53
2023-03-15T08:38:49.013Z,10.60
2023-03-15T08:42:50.795Z,10.90
2023-03-15T08:46:52.545Z,10.60
2023-03-15T08:50:54.368Z,9.83
2023-03-15T08:54:57.505Z,10.13
2023-03-15T08:58:59.188Z,11.77
2023-03-15T09:03:01.162Z,10.87
2023-03-15T09:07:02.559Z,14.10
2023-03-15T09:11:05.765Z,10.20
2023-03-15T09:15:08.562Z,11.20
2023-03-15T09:19:10.294Z,9.40
2023-03-15T09:23:12.170Z,9.80
2023-03-15T09:27:15.498Z,9.00
2023-03-15T09:31:17.039Z,9.13
2023-03-15T09:35:20.384Z,10.67
2023-03-15T09:39:22.765Z,9.03
2023-03-15T09:43:54.017Z,12.00
2023-03-15T09:48:04.281Z,9.43
2023-03-15T09:52:26.042Z,13.53
2023-03-15T09:56:32.385Z,9.90
2023-03-15T10:00:39.821Z,6.27
2023-03-15T10:04:45.527Z,5.20
2023-03-15T10:08:47.760Z,5.83
2023-03-15T10:12:59.636Z,10.73
2023-03-15T10:17:12.810Z,9.37
2023-03-15T10:21:30.763Z,6.07
2023-03-15T10:25:33.058Z,6.90
2023-03-15T10:29:35.162Z,5.17
2023-03-15T10:33:38.815Z,3.80
2023-03-15T10:37:43.144Z,5.23
2023-03-15T10:41:48.033Z,6.13
2023-03-15T10:46:00.666Z,3.83
2023-03-15T10:50:02.445Z,5.83
2023-03-15T10:54:12.525Z,7.87
2023-03-15T10:58:21.176Z,6.87
2023-03-15T11:02:25.237Z,3.80
2023-03-15T11:06:28.240Z,4.30
2023-03-15T11:10:35.018Z,8.27
2023-03-15T11:14:40.981Z,6.40
2023-03-15T11:18:49.167Z,5.70
2023-03-15T11:22:52.067Z,4.03
2023-03-15T11:26:58.980Z,5.63
2023-03-15T11:31:02.109Z,6.43
2023-03-15T11:35:06.024Z,5.30
2023-03-15T11:39:13.038Z,10.87
2023-03-15T11:43:21.746Z,4.80
2023-03-15T11:47:37.426Z,5.50
2023-03-15T11:51:39.994Z,4.57
2023-03-15T11:55:46.987Z,5.33
2023-03-15T11:59:49.773Z,6.63
2023-03-15T12:03:51.507Z,7.03
2023-03-15T12:08:16.223Z,8.17
2023-03-15T12:12:44.808Z,5.60
2023-03-15T12:16:50.651Z,8.10
2023-03-15T12:21:09.466Z,4.57
2023-03-15T12:25:14.786Z,8.50
2023-03-15T12:29:20.678Z,4.57
2023-03-15T12:33:25.907Z,4.33
2023-03-15T12:37:40.199Z,7.13
2023-03-15T12:41:43.963Z,4.30
2023-03-15T12:45:46.747Z,3.57
2023-03-15T12:49:50.222Z,4.23
2023-03-15T12:53:53.317Z,6.10
2023-03-15T12:57:56.255Z,4.83
2023-03-15T13:01:59.761Z,3.90
2023-03-15T13:06:14.065Z,4.53
2023-03-15T13:10:41.540Z,3.73
2023-03-15T13:14:50.162Z,4.37
2023-03-15T13:19:01.221Z,7.00
2023-03-15T13:23:13.865Z,2.90
2023-03-15T13:27:29.741Z,4.80
2023-03-15T13:31:32.264Z,4.43
2023-03-15T13:35:41.841Z,4.50
2023-03-15T13:39:56.526Z,3.20
2023-03-15T13:44:00.866Z,5.43
2023-03-15T13:48:04.374Z,4.10
2023-03-15T13:52:06.898Z,5.17
2023-03-15T13:56:32.685Z,2.50
2023-03-15T14:00:40.204Z,3.90
2023-03-15T14:04:45.429Z,4.43
2023-03-15T14:08:47.881Z,4.57
2023-03-15T14:12:52.843Z,5.00
2023-03-15T14:17:05.509Z,2.97
2023-03-15T14:21:13.662Z,6.70
2023-03-15T14:25:21.916Z,2.57
2023-03-15T14:29:29.746Z,9.83
2023-03-15T14:33:33.516Z,2.20
2023-03-15T14:37:38.266Z,4.37
2023-03-15T14:41:39.710Z,4.03
2023-03-15T14:45:45.579Z,2.63
2023-03-15T14:49:47.314Z,4.13
2023-03-15T14:53:52.373Z,2.37
2023-03-15T14:57:53.820Z,2.83
2023-03-15T15:01:59.362Z,2.60
2023-03-15T15:06:02.583Z,2.90
2023-03-15T15:10:04.578Z,4.97
2023-03-15T15:14:12.484Z,3.33
2023-03-15T15:18:16.983Z,3.20
2023-03-15T15:22:20.181Z,3.47
2023-03-15T15:26:23.692Z,4.57
2023-03-15T15:30:25.217Z,4.10
2023-03-15T15:34:28.195Z,4.30
2023-03-15T15:38:32.420Z,5.67
2023-03-15T15:42:34.096Z,2.47
2023-03-15T15:46:37.040Z,3.70
2023-03-15T15:50:39.930Z,3.67
2023-03-15T15:54:41.400Z,5.70
2023-03-15T15:58:44.418Z,2.53
2023-03-15T16:02:48.848Z,4.00
2023-03-15T16:06:54.855Z,3.57
2023-03-15T16:10:56.330Z,2.93
2023-03-15T16:14:57.794Z,2.00
2023-03-15T16:18:59.244Z,4.63
2023-03-15T16:23:04.092Z,1.93
2023-03-15T16:27:08.147Z,2.87
2023-03-15T16:31:09.639Z,2.30
2023-03-15T16:35:12.779Z,4.07
2023-03-15T16:39:16.505Z,9.00
2023-03-15T16:43:18.694Z,2.67
2023-03-15T16:47:20.592Z,2.10
2023-03-15T16:51:23.219Z,2.53
2023-03-15T16:55:28.157Z,2.50
2023-03-15T16:59:29.873Z,6.97
2023-03-15T17:03:31.378Z,2.70
2023-03-15T17:07:35.226Z,4.03
2023-03-15T17:11:40.840Z,6.43
2023-03-15T17:15:43.083Z,3.07
2023-03-15T17:19:44.674Z,2.33
2023-03-15T17:23:47.468Z,2.97
2023-03-15T17:27:50.681Z,4.10
2023-03-15T17:31:52.148Z,3.97
2023-03-15T17:35:54.113Z,2.80
2023-03-15T17:39:55.648Z,2.97
2023-03-15T17:43:58.889Z,3.90
2023-03-15T17:48:01.882Z,2.27
2023-03-15T17:52:03.467Z,6.03
2023-03-15T17:56:06.050Z,4.07
2023-03-15T18:00:13.022Z,2.93
2023-03-15T18:04:15.881Z,6.37
2023-03-15T18:08:20.049Z,2.27
2023-03-15T18:12:22.341Z,3.90
2023-03-15T18:16:25.459Z,3.63
2023-03-15T18:20:26.973Z,3.83
2023-03-15T18:24:29.016Z,2.67
2023-03-15T18:28:30.578Z,1.80
2023-03-15T18:32:33.688Z,4.77
2023-03-15T18:36:35.126Z,5.13
2023-03-15T18:40:36.587Z,5.67
2023-03-15T18:44:38.297Z,2.87
2023-03-15T18:48:43.313Z,3.30
2023-03-15T18:52:45.104Z,3.63
2023-03-15T18:56:46.667Z,5.83
2023-03-15T19:00:48.295Z,5.13
2023-03-15T19:04:52.250Z,2.33
2023-03-15T19:08:53.922Z,2.83
2023-03-15T19:12:55.387Z,4.13
2023-03-15T19:16:57.087Z,4.27
2023-03-15T19:21:00.345Z,2.17
2023-03-15T19:25:01.760Z,2.37
2023-03-15T19:29:03.362Z,5.00
2023-03-15T19:33:05.304Z,2.90
2023-03-15T19:37:08.535Z,3.70
2023-03-15T19:41:12.557Z,4.90
2023-03-15T19:45:14.947Z,3.83
2023-03-15T19:49:16.793Z,4.77
2023-03-15T19:53:21.003Z,4.90
2023-03-15T19:57:22.432Z,7.40
2023-03-15T20:01:24.113Z,7.53
2023-03-15T20:05:25.830Z,2.90
2023-03-15T20:09:28.627Z,3.07
2023-03-15T20:13:30.187Z,3.50
2023-03-15T20:17:32.059Z,6.07
2023-03-15T20:21:33.747Z,4.37
2023-03-15T20:25:36.616Z,2.60
2023-03-15T20:29:39.092Z,2.03
2023-03-15T20:33:42.672Z,4.07
2023-03-15T20:37:45.088Z,2.90
2023-03-15T20:41:48.056Z,3.43
2023-03-15T20:45:54.617Z,3.10
2023-03-15T20:49:56.259Z,3.73
2023-03-15T20:53:57.676Z,1.63
2023-03-15T20:58:00.448Z,4.13
2023-03-15T21:02:01.852Z,2.53
2023-03-15T21:06:05.512Z,2.43
2023-03-15T21:10:08.157Z,3.00
2023-03-15T21:14:11.831Z,2.47
2023-03-15T21:18:13.356Z,2.13
2023-03-15T21:22:15.886Z,3.43
2023-03-15T21:26:17.585Z,4.50
2023-03-15T21:30:21.728Z,2.97
2023-03-15T21:34:24.926Z,2.83
2023-03-15T21:38:26.840Z,6.03
2023-03-15T21:42:28.378Z,4.27
2023-03-15T21:46:31.373Z,2.53
2023-03-15T21:50:33.169Z,2.43
2023-03-15T21:54:34.886Z,2.17
2023-03-15T21:58:36.305Z,2.73
2023-03-15T22:02:39.280Z,1.60
2023-03-15T22:06:41.122Z,2.67
2023-03-15T22:10:42.883Z,3.13
2023-03-15T22:14:45.890Z,2.67
2023-03-15T22:18:50.233Z,5.50
2023-03-15T22:22:52.636Z,4.03
2023-03-15T22:26:54.294Z,5.90
2023-03-15T22:30:55.806Z,2.77
2023-03-15T22:34:58.659Z,3.70
2023-03-15T22:39:00.426Z,10.63
2023-03-15T22:43:01.921Z,2.80
2023-03-15T22:47:03.648Z,5.33
2023-03-15T22:51:08.394Z,2.57
2023-03-15T22:55:10.951Z,5.47
2023-03-15T22:59:12.516Z,4.07
2023-03-15T23:03:14.079Z,2.63
2023-03-15T23:07:17.055Z,1.83
2023-03-15T23:11:18.781Z,2.70
2023-03-15T23:15:20.345Z,6.03
2023-03-15T23:19:21.873Z,6.97
2023-03-15T23:23:24.755Z,2.57
2023-03-15T23:27:26.450Z,3.47
2023-03-15T23:31:28.031Z,4.27
2023-03-15T23:35:29.789Z,1.57
2023-03-15T23:39:32.529Z,5.30
2023-03-15T23:43:34.070Z,6.90
2023-03-15T23:47:35.551Z,3.80
2023-03-15T23:51:37.011Z,3.53
2023-03-15T23:55:40.069Z,6.13
2023-03-15T23:59:42.083Z,6.37
